首页
METAR-TAF:

METAR-TAF

机场 :

巴塞罗那-埃尔普拉特机场

巴塞罗那, 西班牙

纬度: 41-17N, 经度: 002-04E, 海拔: 4米

当前天气观测

该预报发布于20分钟前的03:00 UTC
风速9节,风向西北
温度 13°C
湿度 72%
气压 1022 hPa
能见度10公里或以上
少量云层高于4000英尺

METAR: LEBL 240300Z 31009KT 9999 FEW040 13/08 Q1022 NOSIG

时间: 05:20 (03:20 UTC)

预报

该预报发布于4小时和20分钟前的23:00 UTC
预报有效从24日的 00点(UTC)到 24日的 24点(UTC)
风速8节,风向北转西北
能见度10公里或以上
少量云层高于4000英尺
成为
从 24日的 11点(UTC)到 24日的 13点(UTC)
风速12节,风向西转西南
成为
从 24日的 19点(UTC)到 24日的 21点(UTC)
风速3节,风向多变

TAF: LEBL 232300Z 2400/2424 34008KT 9999 FEW040 TX22/2412Z TN12/2406Z BECMG 2411/2413 24012KT BECMG 2419/2421 VRB03KT

超过4000个机场的气象观测和天气预报(METAR&TAF报告)。

可查询的气象台以黄色和红色小点在地图上表示。

将鼠标移到小点上方,可查看气象台名称。

然后点击查看天气观测和预报。

如需切换地图:点击带黑十字的绿色按钮放大地图;点击带横线的绿色按钮缩小地图;或者点击绿色箭头查看邻近地区的地图。


METAR-TAF: